Sunkist, California
Current Conditions -  °F | °C
As of 4:53 AM on Friday 28 Nov 2014 (Local Time) from KFUL Reporting Station
Clear Clear  
Wind Chill: 51°   Ceiling: Unl
Heat Index: 51°   Visibility: 10mi
Dew Point: 35°   Wind: 0mph
Humidity: 54%   Direction: NA
Pressure: 29.97"   Gusts: NA
Location:  33.8393°N, 117.87°W
Report Text: KFUL 281253Z 00000KT 10SM CLR 11/02 A2997 RMK AO2 SLP146 T01060017
Loading
Personal Weather Stations






























Interactive Weather Map New forecast layout! Learn more

10-Day Weather Forecast

Advertisements
Track Severe Weather on mobile